< Typhoon 200504 2005 Season Typhoon 200506 >
Typhoon 200505 (HAITANG)
General InformationTrack Information on Google MapsDetailed Wind InformationAccess Analytics MapList of All Images || NewsDisaster Info.WeblogTrackbackTyphoon FrontResourceGoogle EarthGE AnimationAtom FeedGeoJSON
Detalied Best Track (Time Zone = UTC)
Year Month Day Hour Lat. Long. Pressure (hPa) Wind (kt) Class Image Chart
2005 7 10 18 22.1 154.1 1010 0 2 Image Chart
2005 7 11 00 22.1 153.6 1010 0 2 Image Chart
2005 7 11 06 22.2 153.1 1008 0 2 Image Chart
2005 7 11 12 22.4 152.7 1006 0 2 Image Chart
2005 7 11 18 22.7 152.3 1006 0 2 Image Chart
2005 7 12 00 23.1 151.8 1004 0 2 Image Chart
2005 7 12 06 23.3 151.2 1004 0 2 Image Chart
2005 7 12 12 23.3 150.6 1004 0 2 Image Chart
2005 7 12 18 23.1 149.9 1002 0 2 Image Chart
2005 7 13 00 22.9 149.2 998 35 3 Image Chart
2005 7 13 06 22.3 148.3 990 40 3 Image Chart
2005 7 13 12 21.7 147.1 980 55 4 Image Chart
2005 7 13 18 21.3 146.0 970 65 5 Image Chart
2005 7 14 00 20.6 144.6 965 70 5 Image Chart
2005 7 14 06 20.0 142.7 965 70 5 Image Chart
2005 7 14 12 19.6 141.4 965 70 5 Image Chart
2005 7 14 18 19.3 139.3 960 75 5 Image Chart
2005 7 15 00 19.1 136.9 960 75 5 Image Chart
2005 7 15 06 19.1 134.9 955 80 5 Image Chart
2005 7 15 12 19.3 133.5 940 90 5 Image Chart
2005 7 15 18 19.6 131.9 930 95 5 Image Chart
2005 7 16 00 19.9 130.4 925 100 5 Image Chart
2005 7 16 06 20.3 129.1 920 105 5 Image Chart
2005 7 16 12 20.7 127.7 920 105 5 Image Chart
2005 7 16 18 20.9 126.6 920 105 5 Image Chart
2005 7 17 00 21.5 125.8 920 105 5 Image Chart
2005 7 17 03 21.9 125.4 925 100 5 Image Chart
2005 7 17 06 22.3 125.0 930 95 5 Image Chart
2005 7 17 09 22.7 124.4 930 95 5 Image Chart
2005 7 17 12 23.1 124.0 935 95 5 Image Chart
2005 7 17 15 23.3 123.5 935 95 5 Image Chart
2005 7 17 18 23.7 123.1 940 90 5 Image Chart
2005 7 17 21 24.1 122.5 945 90 5 Image Chart
2005 7 18 00 23.8 121.8 950 85 5 Image Chart
2005 7 18 03 23.4 121.6 955 80 5 Image Chart
2005 7 18 06 24.0 121.5 960 75 5 Image Chart
2005 7 18 09 24.2 121.4 965 70 5 Image Chart
2005 7 18 12 24.5 121.2 970 65 5 Image Chart
2005 7 18 15 24.7 120.9 970 65 5 Image Chart
2005 7 18 18 24.8 120.6 975 60 4 Image Chart
2005 7 19 00 25.0 120.4 980 55 4 Image Chart
2005 7 19 06 25.6 120.1 980 55 4 Image Chart
2005 7 19 12 26.5 119.7 985 50 4 Image Chart
2005 7 19 18 27.1 119.2 990 45 3 Image Chart
2005 7 20 00 27.6 118.2 992 35 3 Image Chart
2005 7 20 06 27.8 117.6 996 0 2 Image Chart
2005 7 20 12 28.0 116.7 998 0 2 Image Chart
2005 7 20 18 28.1 116.1 998 0 2 Image Chart
2005 7 21 00 28.2 115.4 1000 0 2 Image Chart
2005 7 21 06 28.5 114.5 1000 0 2 Image Chart
2005 7 21 12 28.8 113.9 1000 0 2 Image Chart
Japan Meteorological Agency Best Track Data | Correction Date : 2005-12-19
< Typhoon 200504 2005 Season Typhoon 200506 >

Help